sensor_id;sensor_type;location;lat;lon;timestamp;pressure;altitude;pressure_sealevel;temperature;humidity
5238;BME280;2639;49.700;7.962;2023-05-12T03:04:21;98503.97;;;12.25;100.00
5238;BME280;2639;49.700;7.962;2023-05-12T03:07:31;98495.78;;;12.17;100.00
5238;BME280;2639;49.700;7.962;2023-05-12T03:10:41;98494.09;;;12.18;100.00
5238;BME280;2639;49.700;7.962;2023-05-12T03:13:51;98502.03;;;12.21;100.00
5238;BME280;2639;49.700;7.962;2023-05-12T03:17:01;98503.22;;;12.26;100.00
5238;BME280;2639;49.700;7.962;2023-05-12T03:20:12;98504.19;;;12.28;100.00
5238;BME280;2639;49.700;7.962;2023-05-12T03:23:23;98505.88;;;12.28;100.00
5238;BME280;2639;49.700;7.962;2023-05-12T03:26:32;98501.41;;;12.25;100.00
5238;BME280;2639;49.700;7.962;2023-05-12T03:29:42;98505.31;;;12.18;100.00
5238;BME280;2639;49.700;7.962;2023-05-12T03:32:53;98504.09;;;12.13;100.00
5238;BME280;2639;49.700;7.962;2023-05-12T03:36:05;98500.44;;;12.10;100.00
5238;BME280;2639;49.700;7.962;2023-05-12T03:39:15;98501.72;;;12.16;100.00
5238;BME280;2639;49.700;7.962;2023-05-12T03:42:25;98504.59;;;12.21;100.00
5238;BME280;2639;49.700;7.962;2023-05-12T03:45:34;98501.31;;;12.24;100.00
5238;BME280;2639;49.700;7.962;2023-05-12T03:48:44;98506.56;;;12.25;100.00
5238;BME280;2639;49.700;7.962;2023-05-12T03:51:55;98504.97;;;12.27;100.00
5238;BME280;2639;49.700;7.962;2023-05-12T03:55:06;98505.19;;;12.30;100.00
5238;BME280;2639;49.700;7.962;2023-05-12T03:58:16;98504.50;;;12.33;100.00
5238;BME280;2639;49.700;7.962;2023-05-12T04:01:27;98502.00;;;12.34;100.00
5238;BME280;2639;49.700;7.962;2023-05-12T04:04:37;98502.81;;;12.33;100.00
5238;BME280;2639;49.700;7.962;2023-05-12T04:07:48;98502.81;;;12.33;100.00
5238;BME280;2639;49.700;7.962;2023-05-12T04:11:00;98501.63;;;12.28;100.00
5238;BME280;2639;49.700;7.962;2023-05-12T04:14:10;98499.94;;;12.29;100.00
5238;BME280;2639;49.700;7.962;2023-05-12T04:17:22;98504.59;;;12.21;100.00
5238;BME280;2639;49.700;7.962;2023-05-12T04:20:33;98505.19;;;12.17;100.00
5238;BME280;2639;49.700;7.962;2023-05-12T04:23:44;98512.50;;;12.24;100.00
5238;BME280;2639;49.700;7.962;2023-05-12T04:26:56;98512.69;;;12.27;100.00
5238;BME280;2639;49.700;7.962;2023-05-12T04:30:07;98503.41;;;12.29;100.00
5238;BME280;2639;49.700;7.962;2023-05-12T04:33:22;98513.69;;;12.29;100.00
5238;BME280;2639;49.700;7.962;2023-05-12T04:36:31;98512.63;;;12.26;100.00
5238;BME280;2639;49.700;7.962;2023-05-12T04:39:43;98519.06;;;12.32;100.00
5238;BME280;2639;49.700;7.962;2023-05-12T04:42:53;98514.88;;;12.34;100.00
5238;BME280;2639;49.700;7.962;2023-05-12T04:46:04;98512.50;;;12.37;100.00
5238;BME280;2639;49.700;7.962;2023-05-12T04:49:14;98516.38;;;12.31;100.00
5238;BME280;2639;49.700;7.962;2023-05-12T04:52:23;98524.09;;;12.17;100.00
5238;BME280;2639;49.700;7.962;2023-05-12T04:55:35;98529.06;;;12.14;100.00
5238;BME280;2639;49.700;7.962;2023-05-12T04:58:45;98532.69;;;12.18;100.00
5238;BME280;2639;49.700;7.962;2023-05-12T05:01:55;98525.19;;;12.21;100.00
5238;BME280;2639;49.700;7.962;2023-05-12T05:43:46;98554.06;;;12.70;100.00
5238;BME280;2639;49.700;7.962;2023-05-12T05:46:56;98549.38;;;12.78;100.00
5238;BME280;2639;49.700;7.962;2023-05-12T05:50:08;98549.28;;;12.76;100.00
5238;BME280;2639;49.700;7.962;2023-05-12T05:53:20;98555.22;;;12.89;100.00
5238;BME280;2639;49.700;7.962;2023-05-12T05:56:31;98560.13;;;12.99;100.00
5238;BME280;2639;49.700;7.962;2023-05-12T05:59:44;98553.00;;;12.95;100.00
5238;BME280;2639;49.700;7.962;2023-05-12T06:02:56;98561.31;;;13.04;100.00
5238;BME280;2639;49.700;7.962;2023-05-12T06:06:06;98564.50;;;13.00;100.00
5238;BME280;2639;49.700;7.962;2023-05-12T06:09:15;98567.44;;;13.06;100.00
5238;BME280;2639;49.700;7.962;2023-05-12T06:12:25;98564.50;;;13.00;100.00
5238;BME280;2639;49.700;7.962;2023-05-12T06:15:36;98575.00;;;13.03;100.00
5238;BME280;2639;49.700;7.962;2023-05-12T06:18:46;98576.97;;;13.07;100.00
5238;BME280;2639;49.700;7.962;2023-05-12T06:21:56;98576.97;;;13.07;100.00
5238;BME280;2639;49.700;7.962;2023-05-12T06:25:06;98587.28;;;13.07;100.00
5238;BME280;2639;49.700;7.962;2023-05-12T06:28:18;98583.63;;;13.03;100.00
5238;BME280;2639;49.700;7.962;2023-05-12T06:31:29;98590.66;;;13.06;100.00
5238;BME280;2639;49.700;7.962;2023-05-12T06:34:39;98589.59;;;12.89;100.00
5238;BME280;2639;49.700;7.962;2023-05-12T06:37:48;98593.88;;;12.89;100.00
5238;BME280;2639;49.700;7.962;2023-05-12T06:40:58;98597.53;;;12.92;100.00
5238;BME280;2639;49.700;7.962;2023-05-12T06:44:08;98589.28;;;12.98;100.00
5238;BME280;2639;49.700;7.962;2023-05-12T06:47:21;98589.75;;;13.05;100.00
5238;BME280;2639;49.700;7.962;2023-05-12T06:50:31;98593.03;;;13.16;100.00
5238;BME280;2639;49.700;7.962;2023-05-12T06:53:41;98600.06;;;13.32;100.00
5238;BME280;2639;49.700;7.962;2023-05-12T06:56:51;98594.19;;;13.35;100.00
5238;BME280;2639;49.700;7.962;2023-05-12T07:00:00;98596.34;;;13.42;100.00
5238;BME280;2639;49.700;7.962;2023-05-12T07:03:12;98598.50;;;13.49;100.00
5238;BME280;2639;49.700;7.962;2023-05-12T07:06:22;98610.63;;;13.65;100.00
5238;BME280;2639;49.700;7.962;2023-05-12T07:09:35;98596.22;;;13.68;100.00
5238;BME280;2639;49.700;7.962;2023-05-12T07:12:46;98603.34;;;13.73;100.00
5238;BME280;2639;49.700;7.962;2023-05-12T07:15:56;98604.22;;;13.58;100.00
5238;BME280;2639;49.700;7.962;2023-05-12T07:19:07;98601.03;;;13.62;100.00
5238;BME280;2639;49.700;7.962;2023-05-12T07:22:17;98602.81;;;13.78;100.00
5238;BME280;2639;49.700;7.962;2023-05-12T07:25:27;98601.31;;;13.82;100.00
5238;BME280;2639;49.700;7.962;2023-05-12T07:28:37;98602.47;;;13.87;100.00
5238;BME280;2639;49.700;7.962;2023-05-12T07:31:47;98606.38;;;13.80;100.00
5238;BME280;2639;49.700;7.962;2023-05-12T07:34:58;98601.16;;;13.79;100.00
5238;BME280;2639;49.700;7.962;2023-05-12T07:38:08;98609.72;;;13.64;100.00
5238;BME280;2639;49.700;7.962;2023-05-12T07:41:18;98603.69;;;13.64;100.00
5238;BME280;2639;49.700;7.962;2023-05-12T07:44:28;98610.09;;;13.71;100.00
5238;BME280;2639;49.700;7.962;2023-05-12T07:47:41;98612.44;;;13.81;100.00
5238;BME280;2639;49.700;7.962;2023-05-12T07:50:53;98607.81;;;13.90;100.00
5238;BME280;2639;49.700;7.962;2023-05-12T07:54:03;98614.22;;;13.82;100.00
5238;BME280;2639;49.700;7.962;2023-05-12T07:57:14;98612.50;;;13.67;100.00
5238;BME280;2639;49.700;7.962;2023-05-12T08:00:24;98613.66;;;13.58;100.00
5238;BME280;2639;49.700;7.962;2023-05-12T08:03:35;98613.59;;;13.43;100.00
5238;BME280;2639;49.700;7.962;2023-05-12T08:06:46;98610.81;;;13.26;100.00
5238;BME280;2639;49.700;7.962;2023-05-12T08:09:56;98619.59;;;13.29;100.00
5238;BME280;2639;49.700;7.962;2023-05-12T08:13:06;98618.97;;;13.46;100.00
5238;BME280;2639;49.700;7.962;2023-05-12T08:16:15;98619.88;;;13.61;100.00
5238;BME280;2639;49.700;7.962;2023-05-12T08:19:25;98616.28;;;13.59;100.00
5238;BME280;2639;49.700;7.962;2023-05-12T08:22:37;98623.25;;;13.60;100.00
5238;BME280;2639;49.700;7.962;2023-05-12T08:25:47;98629.06;;;13.43;100.00
5238;BME280;2639;49.700;7.962;2023-05-12T08:28:57;98623.91;;;13.43;100.00
5238;BME280;2639;49.700;7.962;2023-05-12T08:32:07;98634.63;;;13.22;100.00
5238;BME280;2639;49.700;7.962;2023-05-12T08:35:17;98637.13;;;13.21;100.00
5238;BME280;2639;49.700;7.962;2023-05-12T08:38:31;98626.91;;;13.36;100.00
5238;BME280;2639;49.700;7.962;2023-05-12T08:41:42;98630.34;;;13.64;100.00
5238;BME280;2639;49.700;7.962;2023-05-12T08:44:53;98632.09;;;13.79;100.00
5238;BME280;2639;49.700;7.962;2023-05-12T08:48:05;98640.25;;;14.15;100.00
5238;BME280;2639;49.700;7.962;2023-05-12T08:51:18;98627.06;;;14.55;100.00
5238;BME280;2639;49.700;7.962;2023-05-12T08:54:29;98629.16;;;14.91;100.00
5238;BME280;2639;49.700;7.962;2023-05-12T08:57:41;98626.84;;;15.12;100.00
5238;BME280;2639;49.700;7.962;2023-05-12T09:00:57;98626.72;;;15.26;100.00
5238;BME280;2639;49.700;7.962;2023-05-12T09:04:09;98626.72;;;15.26;100.00
5238;BME280;2639;49.700;7.962;2023-05-12T09:07:21;98622.91;;;15.19;100.00
5238;BME280;2639;49.700;7.962;2023-05-12T09:10:33;98624.88;;;15.40;100.00
5238;BME280;2639;49.700;7.962;2023-05-12T09:13:48;98628.44;;;15.42;97.22
5238;BME280;2639;49.700;7.962;2023-05-12T09:17:03;98631.03;;;15.58;100.00
5238;BME280;2639;49.700;7.962;2023-05-12T09:20:14;98634.25;;;15.38;100.00
5238;BME280;2639;49.700;7.962;2023-05-12T09:23:38;98629.72;;;15.33;100.00
5238;BME280;2639;49.700;7.962;2023-05-12T09:26:52;98630.19;;;15.26;100.00
5238;BME280;2639;49.700;7.962;2023-05-12T09:30:04;98635.09;;;15.36;100.00
5238;BME280;2639;49.700;7.962;2023-05-12T09:33:14;98632.97;;;15.29;100.00
5238;BME280;2639;49.700;7.962;2023-05-12T09:36:24;98628.91;;;15.18;100.00
5238;BME280;2639;49.700;7.962;2023-05-12T09:39:34;98634.41;;;15.24;100.00
5238;BME280;2639;49.700;7.962;2023-05-12T09:42:46;98642.97;;;15.23;100.00
5238;BME280;2639;49.700;7.962;2023-05-12T09:45:56;98642.94;;;15.07;100.00
5238;BME280;2639;49.700;7.962;2023-05-12T09:49:06;98637.41;;;15.15;100.00
5238;BME280;2639;49.700;7.962;2023-05-12T09:52:19;98631.34;;;15.31;100.00
5238;BME280;2639;49.700;7.962;2023-05-12T09:55:30;98632.25;;;15.65;100.00
5238;BME280;2639;49.700;7.962;2023-05-12T09:58:42;98636.38;;;15.61;98.60
5238;BME280;2639;49.700;7.962;2023-05-12T10:01:54;98633.16;;;15.65;100.00
5238;BME280;2639;49.700;7.962;2023-05-12T10:05:12;98631.38;;;15.64;97.74
5238;BME280;2639;49.700;7.962;2023-05-12T10:08:24;98632.31;;;15.50;98.56
5238;BME280;2639;49.700;7.962;2023-05-12T10:11:36;98630.09;;;15.72;98.66
5238;BME280;2639;49.700;7.962;2023-05-12T10:14:48;98629.28;;;16.06;96.90
5238;BME280;2639;49.700;7.962;2023-05-12T10:17:58;98630.84;;;16.20;95.70
5238;BME280;2639;49.700;7.962;2023-05-12T10:21:08;98632.00;;;16.09;93.90
5238;BME280;2639;49.700;7.962;2023-05-12T10:24:19;98629.88;;;16.18;93.79
5238;BME280;2639;49.700;7.962;2023-05-12T10:27:31;98627.91;;;16.31;91.18
5238;BME280;2639;49.700;7.962;2023-05-12T10:30:44;98631.50;;;16.51;90.09
5238;BME280;2639;49.700;7.962;2023-05-12T10:33:56;98629.53;;;16.81;87.90
5238;BME280;2639;49.700;7.962;2023-05-12T10:37:09;98628.94;;;17.04;84.72
5238;BME280;2639;49.700;7.962;2023-05-12T10:40:23;98626.84;;;16.97;83.91
5238;BME280;2639;49.700;7.962;2023-05-12T10:43:38;98629.69;;;17.21;82.31
5238;BME280;2639;49.700;7.962;2023-05-12T10:46:56;98632.25;;;17.20;83.73
5238;BME280;2639;49.700;7.962;2023-05-12T10:50:08;98630.25;;;16.60;82.96
5238;BME280;2639;49.700;7.962;2023-05-12T10:53:26;98624.41;;;16.65;85.02
5238;BME280;2639;49.700;7.962;2023-05-12T10:56:57;98626.00;;;16.45;86.37
5238;BME280;2639;49.700;7.962;2023-05-12T11:00:11;98633.00;;;16.81;85.56
5238;BME280;2639;49.700;7.962;2023-05-12T11:03:23;98628.72;;;17.00;85.87
5238;BME280;2639;49.700;7.962;2023-05-12T11:06:36;98633.22;;;17.04;82.77
5238;BME280;2639;49.700;7.962;2023-05-12T11:09:49;98632.38;;;17.23;80.81
5238;BME280;2639;49.700;7.962;2023-05-12T11:13:06;98632.38;;;17.23;80.91
5238;BME280;2639;49.700;7.962;2023-05-12T11:16:16;98631.53;;;17.04;81.13
5238;BME280;2639;49.700;7.962;2023-05-12T11:19:27;98624.34;;;16.81;82.29
5238;BME280;2639;49.700;7.962;2023-05-12T11:22:40;98624.22;;;16.61;83.86
5238;BME280;2639;49.700;7.962;2023-05-12T11:25:50;98638.44;;;16.52;85.31
5238;BME280;2639;49.700;7.962;2023-05-12T11:29:02;98629.78;;;15.99;87.84
5238;BME280;2639;49.700;7.962;2023-05-12T11:32:14;98644.91;;;15.75;92.28
5238;BME280;2639;49.700;7.962;2023-05-12T11:35:29;98645.19;;;15.48;92.30
5238;BME280;2639;49.700;7.962;2023-05-12T11:38:39;98649.41;;;15.15;96.30
5238;BME280;2639;49.700;7.962;2023-05-12T11:41:49;98647.88;;;14.87;98.60
5238;BME280;2639;49.700;7.962;2023-05-12T11:45:18;98652.38;;;14.75;99.58
5238;BME280;2639;49.700;7.962;2023-05-12T11:48:33;98656.38;;;14.70;100.00
5238;BME280;2639;49.700;7.962;2023-05-12T11:51:44;98656.50;;;14.71;100.00
5238;BME280;2639;49.700;7.962;2023-05-12T11:54:56;98664.63;;;14.94;100.00
5238;BME280;2639;49.700;7.962;2023-05-12T11:58:07;98666.63;;;14.83;100.00
5238;BME280;2639;49.700;7.962;2023-05-12T12:01:17;98664.09;;;14.85;100.00
5238;BME280;2639;49.700;7.962;2023-05-12T12:04:31;98672.84;;;15.02;100.00
5238;BME280;2639;49.700;7.962;2023-05-12T12:07:44;98669.44;;;15.03;98.01
5238;BME280;2639;49.700;7.962;2023-05-12T12:10:54;98679.03;;;15.20;97.24
5238;BME280;2639;49.700;7.962;2023-05-12T12:14:03;98679.69;;;15.32;96.15
5238;BME280;2639;49.700;7.962;2023-05-12T12:17:13;98673.34;;;15.58;95.76
5238;BME280;2639;49.700;7.962;2023-05-12T12:20:23;98682.38;;;15.82;94.12
5238;BME280;2639;49.700;7.962;2023-05-12T12:23:34;98678.06;;;15.98;92.36
5238;BME280;2639;49.700;7.962;2023-05-12T12:26:58;98680.34;;;16.09;90.79
5238;BME280;2639;49.700;7.962;2023-05-12T12:30:09;98681.34;;;16.29;91.98
5238;BME280;2639;49.700;7.962;2023-05-12T12:33:19;98687.47;;;16.47;88.90
5238;BME280;2639;49.700;7.962;2023-05-12T12:36:29;98677.88;;;16.62;90.06
5238;BME280;2639;49.700;7.962;2023-05-12T12:39:41;98677.78;;;16.95;90.04
5238;BME280;2639;49.700;7.962;2023-05-12T12:42:50;98677.31;;;17.22;85.90
5238;BME280;2639;49.700;7.962;2023-05-12T12:46:01;98675.88;;;17.29;84.81
5238;BME280;2639;49.700;7.962;2023-05-12T12:49:10;98675.69;;;17.06;86.29
5238;BME280;2639;49.700;7.962;2023-05-12T12:52:20;98679.09;;;17.05;85.62
5238;BME280;2639;49.700;7.962;2023-05-12T12:55:34;98680.88;;;16.88;84.94
5238;BME280;2639;49.700;7.962;2023-05-12T12:58:44;98678.06;;;17.01;86.98
5238;BME280;2639;49.700;7.962;2023-05-12T13:01:54;98672.16;;;17.41;85.09
5238;BME280;2639;49.700;7.962;2023-05-12T13:05:07;98677.38;;;17.61;83.02
5238;BME280;2639;49.700;7.962;2023-05-12T13:08:19;98671.59;;;17.66;80.94
5238;BME280;2639;49.700;7.962;2023-05-12T13:11:31;98672.97;;;17.40;80.92
5238;BME280;2639;49.700;7.962;2023-05-12T13:14:41;98672.75;;;17.36;81.49
5238;BME280;2639;49.700;7.962;2023-05-12T13:17:50;98677.91;;;17.34;80.45
5238;BME280;2639;49.700;7.962;2023-05-12T13:21:00;98670.63;;;17.27;79.90
5238;BME280;2639;49.700;7.962;2023-05-12T13:24:11;98680.50;;;16.98;82.30
5238;BME280;2639;49.700;7.962;2023-05-12T13:27:22;98677.25;;;17.20;82.21
5238;BME280;2639;49.700;7.962;2023-05-12T13:30:32;98669.69;;;17.44;80.26
5238;BME280;2639;49.700;7.962;2023-05-12T13:33:42;98671.75;;;17.32;82.03
5238;BME280;2639;49.700;7.962;2023-05-12T13:36:52;98679.22;;;17.26;78.28
5238;BME280;2639;49.700;7.962;2023-05-12T13:40:02;98680.41;;;17.15;76.83
5238;BME280;2639;49.700;7.962;2023-05-12T13:43:13;98677.16;;;17.19;77.02
5238;BME280;2639;49.700;7.962;2023-05-12T13:46:23;98681.69;;;17.23;77.92
5238;BME280;2639;49.700;7.962;2023-05-12T13:49:33;98688.09;;;17.31;78.24
5238;BME280;2639;49.700;7.962;2023-05-12T13:52:43;98696.06;;;17.34;78.65
5238;BME280;2639;49.700;7.962;2023-05-12T13:55:55;98696.59;;;17.09;77.75
5238;BME280;2639;49.700;7.962;2023-05-12T13:59:09;98692.75;;;16.83;79.43
5238;BME280;2639;49.700;7.962;2023-05-12T14:02:18;98690.66;;;16.94;81.61
5238;BME280;2639;49.700;7.962;2023-05-12T14:05:28;98689.19;;;16.99;80.05
5238;BME280;2639;49.700;7.962;2023-05-12T14:08:38;98688.06;;;17.12;79.07
5238;BME280;2639;49.700;7.962;2023-05-12T14:11:49;98689.63;;;16.90;81.14
5238;BME280;2639;49.700;7.962;2023-05-12T14:15:00;98692.13;;;16.89;79.96
5238;BME280;2639;49.700;7.962;2023-05-12T14:18:31;98698.16;;;16.53;80.90
5238;BME280;2639;49.700;7.962;2023-05-12T14:21:41;98699.78;;;16.51;82.23
5238;BME280;2639;49.700;7.962;2023-05-12T14:24:50;98687.91;;;16.56;82.46
5238;BME280;2639;49.700;7.962;2023-05-12T14:28:00;98701.50;;;16.34;83.31
5238;BME280;2639;49.700;7.962;2023-05-12T14:31:12;98700.59;;;16.50;83.57
5238;BME280;2639;49.700;7.962;2023-05-12T14:34:22;98705.56;;;16.63;82.55
5238;BME280;2639;49.700;7.962;2023-05-12T14:37:32;98703.78;;;16.62;83.33
5238;BME280;2639;49.700;7.962;2023-05-12T14:40:42;98697.19;;;16.51;81.16
5238;BME280;2639;49.700;7.962;2023-05-12T14:43:53;98704.09;;;16.69;81.96
5238;BME280;2639;49.700;7.962;2023-05-12T14:47:05;98695.28;;;16.99;80.68
5238;BME280;2639;49.700;7.962;2023-05-12T14:50:17;98703.09;;;17.01;77.41
5238;BME280;2639;49.700;7.962;2023-05-12T14:53:28;98707.50;;;17.20;78.09
5238;BME280;2639;49.700;7.962;2023-05-12T14:56:37;98706.78;;;17.42;76.52
5238;BME280;2639;49.700;7.962;2023-05-12T14:59:49;98703.66;;;17.49;77.05
5238;BME280;2639;49.700;7.962;2023-05-12T15:03:03;98700.81;;;17.62;76.67
5238;BME280;2639;49.700;7.962;2023-05-12T15:06:13;98707.44;;;17.75;76.01
5238;BME280;2639;49.700;7.962;2023-05-12T15:09:24;98708.44;;;17.40;74.69
5238;BME280;2639;49.700;7.962;2023-05-12T15:12:33;98711.28;;;17.09;76.53
5238;BME280;2639;49.700;7.962;2023-05-12T15:15:43;98700.16;;;17.11;77.86
5238;BME280;2639;49.700;7.962;2023-05-12T15:18:55;98707.34;;;17.17;76.11
5238;BME280;2639;49.700;7.962;2023-05-12T15:22:05;98703.41;;;17.25;76.18
5238;BME280;2639;49.700;7.962;2023-05-12T15:25:15;98701.63;;;17.24;76.42
5238;BME280;2639;49.700;7.962;2023-05-12T15:28:25;98707.56;;;17.21;76.94
5238;BME280;2639;49.700;7.962;2023-05-12T15:31:35;98713.78;;;17.07;77.06
5238;BME280;2639;49.700;7.962;2023-05-12T15:34:46;98712.59;;;17.00;77.74
5238;BME280;2639;49.700;7.962;2023-05-12T15:37:56;98713.94;;;17.10;76.74
5238;BME280;2639;49.700;7.962;2023-05-12T15:41:06;98705.66;;;16.99;75.60
5238;BME280;2639;49.700;7.962;2023-05-12T15:44:15;98705.56;;;17.16;76.54
5238;BME280;2639;49.700;7.962;2023-05-12T15:47:25;98703.50;;;17.09;75.82
5238;BME280;2639;49.700;7.962;2023-05-12T15:50:37;98707.09;;;17.12;76.11
5238;BME280;2639;49.700;7.962;2023-05-12T15:53:49;98702.97;;;17.34;76.93
5238;BME280;2639;49.700;7.962;2023-05-12T15:56:59;98717.78;;;17.36;76.33
5238;BME280;2639;49.700;7.962;2023-05-12T16:00:09;98721.00;;;17.13;76.34
5238;BME280;2639;49.700;7.962;2023-05-12T16:03:24;98714.97;;;17.14;79.51
5238;BME280;2639;49.700;7.962;2023-05-12T16:06:35;98715.13;;;17.17;79.88
5238;BME280;2639;49.700;7.962;2023-05-12T16:09:46;98710.97;;;17.38;80.92
5238;BME280;2639;49.700;7.962;2023-05-12T16:12:56;98710.16;;;17.59;79.01
5238;BME280;2639;49.700;7.962;2023-05-12T16:16:06;98704.63;;;17.88;76.65
5238;BME280;2639;49.700;7.962;2023-05-12T16:19:16;98702.25;;;17.75;76.33
5238;BME280;2639;49.700;7.962;2023-05-12T16:22:27;98698.66;;;17.34;76.62
5238;BME280;2639;49.700;7.962;2023-05-12T16:25:37;98707.19;;;17.14;78.84
5238;BME280;2639;49.700;7.962;2023-05-12T16:28:49;98714.09;;;17.13;79.83
5238;BME280;2639;49.700;7.962;2023-05-12T16:31:59;98711.56;;;17.15;79.06
5238;BME280;2639;49.700;7.962;2023-05-12T16:35:09;98715.41;;;17.05;79.33
5238;BME280;2639;49.700;7.962;2023-05-12T16:38:21;98712.78;;;17.03;81.21
5238;BME280;2639;49.700;7.962;2023-05-12T16:41:31;98709.56;;;16.91;81.03
5238;BME280;2639;49.700;7.962;2023-05-12T16:44:40;98713.50;;;16.83;81.55
5238;BME280;2639;49.700;7.962;2023-05-12T16:47:50;98713.41;;;16.65;82.48
5238;BME280;2639;49.700;7.962;2023-05-12T16:51:01;98713.78;;;16.73;84.52
5238;BME280;2639;49.700;7.962;2023-05-12T16:54:13;98714.81;;;16.93;83.34
5238;BME280;2639;49.700;7.962;2023-05-12T16:57:22;98727.25;;;16.82;82.28
5238;BME280;2639;49.700;7.962;2023-05-12T17:00:33;98721.72;;;16.92;83.81
5238;BME280;2639;49.700;7.962;2023-05-12T17:03:43;98723.50;;;16.77;82.07
5238;BME280;2639;49.700;7.962;2023-05-12T17:06:57;98725.63;;;16.84;83.13
5238;BME280;2639;49.700;7.962;2023-05-12T17:10:09;98724.59;;;16.80;81.81
5238;BME280;2639;49.700;7.962;2023-05-12T17:13:19;98731.34;;;16.60;80.75
5238;BME280;2639;49.700;7.962;2023-05-12T17:16:29;98726.84;;;16.40;81.18
5238;BME280;2639;49.700;7.962;2023-05-12T17:19:39;98730.06;;;16.36;79.76
5238;BME280;2639;49.700;7.962;2023-05-12T17:22:50;98733.13;;;16.45;82.65
5238;BME280;2639;49.700;7.962;2023-05-12T17:26:02;98732.03;;;16.40;80.74
5238;BME280;2639;49.700;7.962;2023-05-12T17:29:12;98730.06;;;16.36;81.72
5238;BME280;2639;49.700;7.962;2023-05-12T17:32:22;98729.03;;;16.32;81.36
5238;BME280;2639;49.700;7.962;2023-05-12T17:35:32;98730.34;;;16.24;80.40
5238;BME280;2639;49.700;7.962;2023-05-12T17:38:42;98732.28;;;16.12;80.70
5238;BME280;2639;49.700;7.962;2023-05-12T17:41:58;98744.50;;;16.14;80.52
5238;BME280;2639;49.700;7.962;2023-05-12T17:45:09;98744.38;;;16.11;79.49
5238;BME280;2639;49.700;7.962;2023-05-12T17:48:21;98749.69;;;15.98;79.35
5238;BME280;2639;49.700;7.962;2023-05-12T17:51:32;98748.22;;;15.87;80.47
5238;BME280;2639;49.700;7.962;2023-05-12T17:54:42;98744.50;;;15.82;81.74
5238;BME280;2639;49.700;7.962;2023-05-12T17:57:54;98760.97;;;15.67;81.40
5238;BME280;2639;49.700;7.962;2023-05-12T18:01:04;98758.59;;;15.41;80.62
5238;BME280;2639;49.700;7.962;2023-05-12T18:04:14;98767.84;;;15.21;83.53
5238;BME280;2639;49.700;7.962;2023-05-12T18:07:24;98769.19;;;15.14;85.95
5238;BME280;2639;49.700;7.962;2023-05-12T18:10:34;98770.19;;;15.16;85.11
5238;BME280;2639;49.700;7.962;2023-05-12T18:13:45;98774.53;;;15.17;87.22
5238;BME280;2639;49.700;7.962;2023-05-12T18:16:58;98775.34;;;15.16;88.14
5238;BME280;2639;49.700;7.962;2023-05-12T18:20:08;98780.53;;;15.16;86.37
5238;BME280;2639;49.700;7.962;2023-05-12T18:23:18;98775.53;;;15.19;86.87
5238;BME280;2639;49.700;7.962;2023-05-12T18:26:28;98777.66;;;14.97;88.68
5238;BME280;2639;49.700;7.962;2023-05-12T18:29:39;98776.25;;;14.87;88.35
5238;BME280;2639;49.700;7.962;2023-05-12T18:32:49;98777.41;;;14.77;88.44
5238;BME280;2639;49.700;7.962;2023-05-12T18:36:00;98776.44;;;14.60;92.39
5238;BME280;2639;49.700;7.962;2023-05-12T18:39:10;98778.34;;;14.49;93.72
5238;BME280;2639;49.700;7.962;2023-05-12T18:42:21;98781.78;;;14.35;92.72
5238;BME280;2639;49.700;7.962;2023-05-12T18:45:33;98784.19;;;14.32;95.62
5238;BME280;2639;49.700;7.962;2023-05-12T18:48:43;98783.44;;;14.20;95.03
5238;BME280;2639;49.700;7.962;2023-05-12T18:51:54;98781.47;;;14.16;95.84
5238;BME280;2639;49.700;7.962;2023-05-12T18:55:07;98797.16;;;14.19;96.29
5238;BME280;2639;49.700;7.962;2023-05-12T18:58:17;98796.75;;;14.13;97.36
5238;BME280;2639;49.700;7.962;2023-05-12T19:01:29;98800.47;;;14.03;97.85
5238;BME280;2639;49.700;7.962;2023-05-12T19:04:39;98809.09;;;14.03;99.20
5238;BME280;2639;49.700;7.962;2023-05-12T19:07:50;98812.72;;;13.92;99.63
5238;BME280;2639;49.700;7.962;2023-05-12T19:11:00;98817.50;;;13.86;99.91
5238;BME280;2639;49.700;7.962;2023-05-12T19:14:10;98818.00;;;13.80;100.00
5238;BME280;2639;49.700;7.962;2023-05-12T19:17:22;98827.97;;;13.61;100.00
5238;BME280;2639;49.700;7.962;2023-05-12T19:20:32;98831.94;;;13.56;100.00
5238;BME280;2639;49.700;7.962;2023-05-12T19:23:42;98836.56;;;13.48;100.00
5238;BME280;2639;49.700;7.962;2023-05-12T19:26:52;98843.94;;;13.42;100.00
5238;BME280;2639;49.700;7.962;2023-05-12T19:30:03;98851.16;;;13.34;100.00
5238;BME280;2639;49.700;7.962;2023-05-12T19:33:15;98851.22;;;13.22;100.00
5238;BME280;2639;49.700;7.962;2023-05-12T19:36:27;98854.09;;;13.14;100.00
5238;BME280;2639;49.700;7.962;2023-05-12T19:39:37;98860.53;;;13.07;100.00
5238;BME280;2639;49.700;7.962;2023-05-12T19:42:48;98863.97;;;12.94;100.00
5238;BME280;2639;49.700;7.962;2023-05-12T19:46:01;98861.75;;;12.87;100.00
5238;BME280;2639;49.700;7.962;2023-05-12T19:49:13;98857.78;;;12.79;100.00
5238;BME280;2639;49.700;7.962;2023-05-12T19:52:23;98868.38;;;12.70;100.00
5238;BME280;2639;49.700;7.962;2023-05-12T19:55:34;98866.72;;;12.59;100.00
5238;BME280;2639;49.700;7.962;2023-05-12T19:58:45;98873.81;;;12.50;100.00
5238;BME280;2639;49.700;7.962;2023-05-12T20:01:56;98875.41;;;12.48;100.00
5238;BME280;2639;49.700;7.962;2023-05-12T20:05:09;98871.81;;;12.46;100.00
5238;BME280;2639;49.700;7.962;2023-05-12T20:08:22;98876.28;;;12.48;100.00
5238;BME280;2639;49.700;7.962;2023-05-12T20:11:33;98878.78;;;12.47;100.00
5238;BME280;2639;49.700;7.962;2023-05-12T20:14:43;98884.13;;;12.50;100.00
5238;BME280;2639;49.700;7.962;2023-05-12T20:17:54;98890.06;;;12.49;100.00
5238;BME280;2639;49.700;7.962;2023-05-12T20:21:06;98889.38;;;12.51;100.00
5238;BME280;2639;49.700;7.962;2023-05-12T20:24:16;98894.22;;;12.47;100.00
5238;BME280;2639;49.700;7.962;2023-05-12T20:27:27;98893.09;;;12.43;100.00
5238;BME280;2639;49.700;7.962;2023-05-12T20:30:38;98894.00;;;12.43;100.00
5238;BME280;2639;49.700;7.962;2023-05-12T20:33:48;98904.28;;;12.43;100.00
5238;BME280;2639;49.700;7.962;2023-05-12T20:37:00;98895.56;;;12.41;100.00
5238;BME280;2639;49.700;7.962;2023-05-12T20:40:10;98899.13;;;12.43;100.00
5238;BME280;2639;49.700;7.962;2023-05-12T20:43:20;98897.38;;;12.42;100.00
5238;BME280;2639;49.700;7.962;2023-05-12T20:46:30;98900.94;;;12.45;100.00
5238;BME280;2639;49.700;7.962;2023-05-12T20:49:43;98895.00;;;12.46;100.00
5238;BME280;2639;49.700;7.962;2023-05-12T20:52:55;98904.19;;;12.42;100.00
5238;BME280;2639;49.700;7.962;2023-05-12T20:56:05;98909.22;;;12.40;100.00